Ipuacu, Brazil
Current Conditions -  °F | °C
As of 5:00 AM on Friday 19 Dec 2014 (Local Time) from SBSV Reporting Station
Broken Clouds Broken Clouds  
Wind Chill: 75°   Ceiling: 7000
Heat Index: 75°   Visibility: 6mi
Dew Point: 72°   Wind: 5mph
Humidity: 89%   Direction: 20°NNE
Pressure: 29.85"   Gusts: NA
Location:  12.35°S, 39.08°W
Report Text: SBSV 190800Z 02004KT 9999 SCT015 BKN070 24/22 Q1011
Loading
Personal Weather Stations






























Interactive Weather Map New forecast layout! Learn more

10-Day Weather Forecast

Advertisements
Track Severe Weather on mobile